createdAt,value
2022-11-02T00:04:46.028Z,77.86
2022-11-02T00:09:47.845Z,78.01
2022-11-02T00:14:49.695Z,78.29
2022-11-02T00:19:51.747Z,78.10
2022-11-02T00:24:55.061Z,78.27
2022-11-02T00:29:57.961Z,78.15
2022-11-02T00:34:59.771Z,77.85
2022-11-02T00:40:01.867Z,78.02
2022-11-02T00:45:05.315Z,77.88
2022-11-02T00:50:07.733Z,78.01
2022-11-02T00:55:12.782Z,77.72
2022-11-02T01:00:17.594Z,78.21
2022-11-02T01:05:19.595Z,78.71
2022-11-02T01:10:23.390Z,78.81
2022-11-02T01:15:25.307Z,79.18
2022-11-02T01:20:27.298Z,79.28
2022-11-02T01:26:39.015Z,79.50
2022-11-02T01:31:40.820Z,79.04
2022-11-02T01:36:45.583Z,79.22
2022-11-02T01:41:51.564Z,78.87
2022-11-02T01:46:55.531Z,78.86
2022-11-02T01:52:07.516Z,78.89
2022-11-02T01:57:14.131Z,78.95
2022-11-02T02:02:21.788Z,78.64
2022-11-02T02:07:25.249Z,78.59
2022-11-02T02:12:28.235Z,79.08
2022-11-02T02:17:49.947Z,78.83
2022-11-02T02:23:03.731Z,78.85
2022-11-02T02:28:06.158Z,79.28
2022-11-02T02:33:14.820Z,78.31
2022-11-02T02:38:30.973Z,78.73
2022-11-02T02:43:36.845Z,79.06
2022-11-02T02:48:41.633Z,79.49
2022-11-02T02:54:01.735Z,78.66
2022-11-02T02:59:07.411Z,79.18
2022-11-02T03:04:12.585Z,79.18
2022-11-02T03:09:21.076Z,78.42
2022-11-02T03:14:34.011Z,78.57
2022-11-02T03:20:24.164Z,79.02
2022-11-02T03:25:31.834Z,78.23
2022-11-02T03:30:43.257Z,78.55
2022-11-02T03:36:56.142Z,78.45
2022-11-02T03:42:00.094Z,78.69
2022-11-02T03:47:03.833Z,78.76
2022-11-02T03:52:10.707Z,78.96
2022-11-02T03:57:20.876Z,78.58
2022-11-02T04:02:23.232Z,78.90
2022-11-02T04:07:27.939Z,78.68
2022-11-02T04:12:48.745Z,79.26
2022-11-02T04:18:09.334Z,79.11
2022-11-02T04:23:29.738Z,79.42
2022-11-02T04:28:32.302Z,80.07
2022-11-02T04:33:36.327Z,80.09
2022-11-02T04:38:46.894Z,80.17
2022-11-02T04:44:01.017Z,80.22
2022-11-02T04:49:04.056Z,80.18
2022-11-02T04:54:07.938Z,80.39
2022-11-02T04:59:10.046Z,80.19
2022-11-02T05:04:13.128Z,80.59
2022-11-02T05:09:15.752Z,80.65
2022-11-02T05:14:21.440Z,80.89
2022-11-02T05:20:33.288Z,80.60
2022-11-02T05:25:35.434Z,81.02
2022-11-02T05:30:38.584Z,81.15
2022-11-02T05:35:41.609Z,81.12
2022-11-02T05:40:43.768Z,81.67
2022-11-02T05:45:54.723Z,81.27
2022-11-02T05:50:57.879Z,81.60
2022-11-02T05:56:05.383Z,81.51
2022-11-02T06:01:08.501Z,81.55
2022-11-02T06:06:11.119Z,81.58
2022-11-02T06:11:14.172Z,81.52
2022-11-02T06:16:22.414Z,81.75
2022-11-02T06:21:25.059Z,81.87
2022-11-02T06:26:26.966Z,81.58
2022-11-02T06:31:28.786Z,81.50
2022-11-02T06:36:30.628Z,81.76
2022-11-02T06:41:32.462Z,82.03
2022-11-02T06:46:34.547Z,82.01
2022-11-02T06:51:36.388Z,81.85
2022-11-02T06:56:38.494Z,81.89
2022-11-02T07:01:40.594Z,82.29
2022-11-02T07:06:42.579Z,82.25
2022-11-02T07:11:44.442Z,82.13
2022-11-02T07:16:46.567Z,81.68
2022-11-02T07:21:48.446Z,81.54
2022-11-02T07:26:51.688Z,81.56
2022-11-02T07:31:53.598Z,81.60
2022-11-02T07:36:55.747Z,81.08
2022-11-02T07:41:57.615Z,80.91
2022-11-02T07:47:01.557Z,80.81
2022-11-02T07:52:03.516Z,80.97
2022-11-02T07:57:06.869Z,81.07
2022-11-02T08:02:11.617Z,80.38
2022-11-02T08:07:13.617Z,80.04
2022-11-02T08:12:15.466Z,80.32
2022-11-02T08:17:17.649Z,80.37
2022-11-02T08:22:19.524Z,80.21
2022-11-02T08:27:21.438Z,79.35
2022-11-02T08:32:23.276Z,79.55
2022-11-02T08:37:25.402Z,78.61
2022-11-02T08:42:27.260Z,77.59
2022-11-02T08:47:29.288Z,75.93
2022-11-02T08:52:40.369Z,75.43
2022-11-02T08:57:51.646Z,74.96
2022-11-02T09:03:10.720Z,71.16
2022-11-02T09:08:20.272Z,66.96
2022-11-02T09:13:25.794Z,63.70
2022-11-02T09:18:27.899Z,62.73
2022-11-02T09:23:29.793Z,59.16
2022-11-02T09:29:47.859Z,56.58
2022-11-02T09:34:50.707Z,54.40
2022-11-02T09:39:52.574Z,54.05
2022-11-02T09:45:28.084Z,54.90
2022-11-02T09:50:57.734Z,54.69
2022-11-02T09:56:05.432Z,53.81
2022-11-02T10:01:25.129Z,52.08
2022-11-02T10:06:27.425Z,51.52
2022-11-02T10:16:50.905Z,50.54
2022-11-02T10:21:57.153Z,49.44
2022-11-02T10:27:07.946Z,50.11
2022-11-02T10:32:13.348Z,49.21
2022-11-02T10:37:18.207Z,47.12
2022-11-02T10:42:32.178Z,47.47
2022-11-02T10:47:41.958Z,46.95
2022-11-02T10:52:45.473Z,49.06
2022-11-02T11:04:39.617Z,52.51
2022-11-02T11:09:51.102Z,54.80
2022-11-02T11:20:33.580Z,54.08
2022-11-02T11:25:35.596Z,55.40
2022-11-02T11:30:58.948Z,55.08
2022-11-02T11:36:01.073Z,53.49
2022-11-02T11:41:04.304Z,54.05
2022-11-02T11:46:08.120Z,54.24
2022-11-02T11:51:25.374Z,55.11
2022-11-02T11:56:35.212Z,53.74
2022-11-02T12:01:40.412Z,54.45
2022-11-02T12:06:46.769Z,54.12
2022-11-02T12:12:01.698Z,54.04
2022-11-02T12:17:09.742Z,52.22
2022-11-02T12:22:16.040Z,52.18
2022-11-02T12:27:43.693Z,52.29
2022-11-02T12:32:57.502Z,52.41
2022-11-02T12:38:21.862Z,51.79
2022-11-02T12:43:30.009Z,51.72
2022-11-02T12:48:39.420Z,51.10
2022-11-02T12:54:03.133Z,51.71
2022-11-02T12:59:05.148Z,51.98
2022-11-02T13:04:15.466Z,49.97
2022-11-02T13:09:17.301Z,49.95
2022-11-02T13:14:22.748Z,50.13
2022-11-02T13:19:35.301Z,50.68
2022-11-02T13:24:43.629Z,50.24
2022-11-02T13:29:47.748Z,50.35
2022-11-02T13:34:50.988Z,49.92
2022-11-02T13:39:55.878Z,48.67
2022-11-02T13:45:15.008Z,48.85
2022-11-02T13:50:19.747Z,48.62
2022-11-02T13:55:45.565Z,47.96
2022-11-02T14:00:48.110Z,47.93
2022-11-02T14:06:01.372Z,48.46
2022-11-02T14:11:37.343Z,49.43
2022-11-02T14:16:46.422Z,48.06
2022-11-02T14:21:48.257Z,47.14
2022-11-02T14:26:57.401Z,48.53
2022-11-02T14:32:03.342Z,48.23
2022-11-02T14:37:21.517Z,48.54
2022-11-02T14:42:41.766Z,48.61
2022-11-02T14:47:43.929Z,48.70
2022-11-02T14:53:00.167Z,48.28
2022-11-02T14:58:09.554Z,50.08
2022-11-02T15:03:26.642Z,51.63
2022-11-02T15:08:31.838Z,49.86
2022-11-02T15:13:36.262Z,51.48
2022-11-02T15:18:39.097Z,50.47
2022-11-02T15:23:47.045Z,51.05
2022-11-02T15:28:49.787Z,50.14
2022-11-02T15:33:55.171Z,50.79
2022-11-02T15:38:57.463Z,52.88
2022-11-02T15:44:23.370Z,52.34
2022-11-02T15:50:23.616Z,53.63
2022-11-02T15:55:48.256Z,54.59
2022-11-02T16:01:12.111Z,54.41
2022-11-02T16:06:14.360Z,53.17
2022-11-02T16:11:20.928Z,53.65
2022-11-02T16:16:22.962Z,55.09
2022-11-02T16:21:24.930Z,54.47
2022-11-02T16:26:28.848Z,56.10
2022-11-02T16:31:33.813Z,53.74
2022-11-02T16:36:37.022Z,56.68
2022-11-02T16:41:39.168Z,57.85
2022-11-02T16:46:48.036Z,58.32
2022-11-02T16:51:54.859Z,58.18
2022-11-02T16:57:00.460Z,57.70
2022-11-02T17:02:03.656Z,58.53
2022-11-02T17:07:13.562Z,57.49
2022-11-02T17:12:18.128Z,58.40
2022-11-02T17:17:25.961Z,58.01
2022-11-02T17:22:29.429Z,59.14
2022-11-02T17:27:37.631Z,59.47
2022-11-02T17:32:43.463Z,60.14
2022-11-02T17:37:45.554Z,60.70
2022-11-02T17:43:01.499Z,60.87
2022-11-02T17:48:05.219Z,61.64
2022-11-02T17:53:09.868Z,61.34
2022-11-02T17:58:13.805Z,61.93
2022-11-02T18:03:16.928Z,62.29
2022-11-02T18:08:19.418Z,62.81
2022-11-02T18:13:22.939Z,62.06
2022-11-02T18:18:24.869Z,61.98
2022-11-02T18:23:27.406Z,61.82
2022-11-02T18:28:29.254Z,63.18
2022-11-02T18:33:31.284Z,63.82
2022-11-02T18:38:33.447Z,63.15
2022-11-02T18:43:37.425Z,63.77
2022-11-02T18:48:39.629Z,65.36
2022-11-02T18:53:41.676Z,65.35
2022-11-02T18:58:43.792Z,64.97
2022-11-02T19:03:54.725Z,65.81
2022-11-02T19:09:14.953Z,65.10
2022-11-02T19:14:17.197Z,65.24
2022-11-02T19:19:19.014Z,66.24
2022-11-02T19:24:24.006Z,65.83
2022-11-02T19:29:25.950Z,65.54
2022-11-02T19:34:28.007Z,65.52
2022-11-02T19:39:30.365Z,65.49
2022-11-02T19:44:32.297Z,64.95
2022-11-02T19:49:34.124Z,66.25
2022-11-02T19:54:36.285Z,65.93
2022-11-02T19:59:38.154Z,66.17
2022-11-02T20:04:42.506Z,66.16
2022-11-02T20:09:45.082Z,66.36
2022-11-02T20:14:46.964Z,66.50
2022-11-02T20:19:48.843Z,66.05
2022-11-02T20:24:50.760Z,65.94
2022-11-02T20:29:52.690Z,66.15
2022-11-02T20:34:54.687Z,66.55
2022-11-02T20:39:56.616Z,67.39
2022-11-02T20:44:58.465Z,67.79
2022-11-02T20:50:00.839Z,67.80
2022-11-02T20:55:02.726Z,68.47
2022-11-02T21:00:06.389Z,68.90
2022-11-02T21:05:09.186Z,69.23
2022-11-02T21:10:14.138Z,68.93
2022-11-02T21:15:16.345Z,69.57
2022-11-02T21:20:34.942Z,69.06
2022-11-02T21:25:37.759Z,69.96
2022-11-02T21:30:39.548Z,70.69
2022-11-02T21:35:41.456Z,71.06
2022-11-02T21:40:43.424Z,70.70
2022-11-02T21:45:56.025Z,70.82
2022-11-02T21:51:06.853Z,71.56
2022-11-02T21:56:09.835Z,71.38
2022-11-02T22:01:36.126Z,71.34
2022-11-02T22:06:38.905Z,71.71
2022-11-02T22:11:41.395Z,71.98
2022-11-02T22:16:43.992Z,71.63
2022-11-02T22:21:46.200Z,71.06
2022-11-02T22:26:50.261Z,71.15
2022-11-02T22:31:52.346Z,71.22
2022-11-02T22:37:14.232Z,72.01
2022-11-02T22:42:16.178Z,72.03
2022-11-02T22:47:18.003Z,72.55
2022-11-02T22:52:19.800Z,73.13
2022-11-02T22:57:21.898Z,73.31
2022-11-02T23:02:23.968Z,73.15
2022-11-02T23:07:25.982Z,73.91
2022-11-02T23:12:27.862Z,74.18
2022-11-02T23:17:29.817Z,74.32
2022-11-02T23:22:32.536Z,74.17
2022-11-02T23:27:59.505Z,75.09
2022-11-02T23:33:01.310Z,75.13
2022-11-02T23:38:05.308Z,76.08
2022-11-02T23:43:08.501Z,75.78
2022-11-02T23:48:11.011Z,75.83
2022-11-02T23:53:33.180Z,75.76
2022-11-02T23:58:35.030Z,76.01
